sensor_id;sensor_type;location;lat;lon;timestamp;P1;durP1;ratioP1;P2;durP2;ratioP2
19253;SDS011;9761;50.926;5.330;2022-12-07T00:02:02;20.73;;;14.60;;
19253;SDS011;9761;50.926;5.330;2022-12-07T00:04:30;17.83;;;14.53;;
19253;SDS011;9761;50.926;5.330;2022-12-07T00:06:57;22.60;;;15.67;;
19253;SDS011;9761;50.926;5.330;2022-12-07T00:09:24;20.47;;;14.90;;
19253;SDS011;9761;50.926;5.330;2022-12-07T00:11:51;23.20;;;14.90;;
19253;SDS011;9761;50.926;5.330;2022-12-07T00:14:19;22.00;;;15.13;;
19253;SDS011;9761;50.926;5.330;2022-12-07T00:16:48;25.90;;;15.67;;
19253;SDS011;9761;50.926;5.330;2022-12-07T00:19:16;24.57;;;14.87;;
19253;SDS011;9761;50.926;5.330;2022-12-07T00:21:43;20.93;;;14.63;;
19253;SDS011;9761;50.926;5.330;2022-12-07T00:24:10;23.17;;;16.07;;
19253;SDS011;9761;50.926;5.330;2022-12-07T00:26:38;25.23;;;17.27;;
19253;SDS011;9761;50.926;5.330;2022-12-07T00:29:08;25.60;;;16.77;;
19253;SDS011;9761;50.926;5.330;2022-12-07T00:31:39;23.63;;;16.27;;
19253;SDS011;9761;50.926;5.330;2022-12-07T00:34:11;23.80;;;17.20;;
19253;SDS011;9761;50.926;5.330;2022-12-07T00:36:39;25.47;;;16.17;;
19253;SDS011;9761;50.926;5.330;2022-12-07T00:39:07;22.97;;;16.80;;
19253;SDS011;9761;50.926;5.330;2022-12-07T00:41:34;22.67;;;16.10;;
19253;SDS011;9761;50.926;5.330;2022-12-07T00:44:01;23.33;;;16.80;;
19253;SDS011;9761;50.926;5.330;2022-12-07T00:46:28;23.90;;;16.13;;
19253;SDS011;9761;50.926;5.330;2022-12-07T00:48:56;25.43;;;16.83;;
19253;SDS011;9761;50.926;5.330;2022-12-07T00:51:25;22.33;;;17.03;;
19253;SDS011;9761;50.926;5.330;2022-12-07T00:53:52;27.33;;;16.60;;
19253;SDS011;9761;50.926;5.330;2022-12-07T00:56:20;22.67;;;16.00;;
19253;SDS011;9761;50.926;5.330;2022-12-07T00:58:52;25.83;;;17.57;;
19253;SDS011;9761;50.926;5.330;2022-12-07T01:01:20;19.93;;;16.53;;
19253;SDS011;9761;50.926;5.330;2022-12-07T01:03:49;23.40;;;16.33;;
19253;SDS011;9761;50.926;5.330;2022-12-07T01:06:17;24.87;;;17.17;;
19253;SDS011;9761;50.926;5.330;2022-12-07T01:08:47;28.63;;;17.20;;
19253;SDS011;9761;50.926;5.330;2022-12-07T01:11:17;24.47;;;17.63;;
19253;SDS011;9761;50.926;5.330;2022-12-07T01:13:45;25.73;;;18.07;;
19253;SDS011;9761;50.926;5.330;2022-12-07T01:16:14;24.53;;;17.10;;
19253;SDS011;9761;50.926;5.330;2022-12-07T01:18:42;25.57;;;16.57;;
19253;SDS011;9761;50.926;5.330;2022-12-07T01:21:13;23.77;;;17.17;;
19253;SDS011;9761;50.926;5.330;2022-12-07T01:23:40;25.80;;;18.03;;
19253;SDS011;9761;50.926;5.330;2022-12-07T01:26:11;23.57;;;16.77;;
19253;SDS011;9761;50.926;5.330;2022-12-07T01:28:39;24.47;;;16.50;;
19253;SDS011;9761;50.926;5.330;2022-12-07T01:31:07;22.63;;;16.13;;
19253;SDS011;9761;50.926;5.330;2022-12-07T01:33:36;22.03;;;17.00;;
19253;SDS011;9761;50.926;5.330;2022-12-07T01:36:05;23.77;;;17.20;;
19253;SDS011;9761;50.926;5.330;2022-12-07T01:38:34;20.87;;;16.30;;
19253;SDS011;9761;50.926;5.330;2022-12-07T01:41:02;23.57;;;17.13;;
19253;SDS011;9761;50.926;5.330;2022-12-07T01:43:31;23.57;;;17.23;;
19253;SDS011;9761;50.926;5.330;2022-12-07T01:45:59;24.20;;;17.33;;
19253;SDS011;9761;50.926;5.330;2022-12-07T01:48:27;23.20;;;16.47;;
19253;SDS011;9761;50.926;5.330;2022-12-07T01:51:00;21.30;;;15.90;;
19253;SDS011;9761;50.926;5.330;2022-12-07T01:53:29;21.50;;;16.00;;
19253;SDS011;9761;50.926;5.330;2022-12-07T01:55:58;20.10;;;15.80;;
19253;SDS011;9761;50.926;5.330;2022-12-07T01:58:26;24.20;;;17.23;;
19253;SDS011;9761;50.926;5.330;2022-12-07T02:00:54;21.63;;;15.43;;
19253;SDS011;9761;50.926;5.330;2022-12-07T02:03:22;21.33;;;15.67;;
19253;SDS011;9761;50.926;5.330;2022-12-07T02:05:53;23.10;;;16.43;;
19253;SDS011;9761;50.926;5.330;2022-12-07T02:08:21;26.30;;;17.77;;
19253;SDS011;9761;50.926;5.330;2022-12-07T02:10:48;25.33;;;17.70;;
19253;SDS011;9761;50.926;5.330;2022-12-07T02:13:16;25.07;;;16.97;;
19253;SDS011;9761;50.926;5.330;2022-12-07T02:18:53;25.43;;;18.00;;
19253;SDS011;9761;50.926;5.330;2022-12-07T02:21:34;23.27;;;16.60;;
19253;SDS011;9761;50.926;5.330;2022-12-07T02:24:14;26.87;;;17.07;;
19253;SDS011;9761;50.926;5.330;2022-12-07T02:30:04;27.23;;;16.73;;
19253;SDS011;9761;50.926;5.330;2022-12-07T02:32:37;22.70;;;16.93;;
19253;SDS011;9761;50.926;5.330;2022-12-07T02:35:09;23.80;;;16.67;;
19253;SDS011;9761;50.926;5.330;2022-12-07T02:37:42;27.37;;;17.70;;
19253;SDS011;9761;50.926;5.330;2022-12-07T02:40:18;24.33;;;16.87;;
19253;SDS011;9761;50.926;5.330;2022-12-07T02:42:50;23.93;;;18.00;;
19253;SDS011;9761;50.926;5.330;2022-12-07T02:45:22;24.60;;;18.13;;
19253;SDS011;9761;50.926;5.330;2022-12-07T02:47:51;24.30;;;18.10;;
19253;SDS011;9761;50.926;5.330;2022-12-07T02:50:23;25.50;;;16.93;;
19253;SDS011;9761;50.926;5.330;2022-12-07T02:52:51;22.50;;;17.27;;
19253;SDS011;9761;50.926;5.330;2022-12-07T02:55:18;24.10;;;17.60;;
19253;SDS011;9761;50.926;5.330;2022-12-07T03:01:30;24.23;;;17.93;;
19253;SDS011;9761;50.926;5.330;2022-12-07T03:04:06;23.67;;;18.47;;
19253;SDS011;9761;50.926;5.330;2022-12-07T03:06:47;26.83;;;17.90;;
19253;SDS011;9761;50.926;5.330;2022-12-07T03:09:20;24.33;;;18.37;;
19253;SDS011;9761;50.926;5.330;2022-12-07T03:11:55;23.57;;;18.70;;
19253;SDS011;9761;50.926;5.330;2022-12-07T03:17:59;23.73;;;18.30;;
19253;SDS011;9761;50.926;5.330;2022-12-07T03:20:32;27.43;;;19.33;;
19253;SDS011;9761;50.926;5.330;2022-12-07T03:23:16;26.77;;;19.53;;
19253;SDS011;9761;50.926;5.330;2022-12-07T03:25:46;25.53;;;19.03;;
19253;SDS011;9761;50.926;5.330;2022-12-07T03:28:17;27.60;;;19.63;;
19253;SDS011;9761;50.926;5.330;2022-12-07T03:30:48;26.03;;;20.20;;
19253;SDS011;9761;50.926;5.330;2022-12-07T03:33:20;28.57;;;21.53;;
19253;SDS011;9761;50.926;5.330;2022-12-07T03:35:51;28.10;;;20.57;;
19253;SDS011;9761;50.926;5.330;2022-12-07T03:38:23;27.57;;;20.70;;
19253;SDS011;9761;50.926;5.330;2022-12-07T03:40:57;28.30;;;20.80;;
19253;SDS011;9761;50.926;5.330;2022-12-07T03:43:28;25.90;;;20.97;;
19253;SDS011;9761;50.926;5.330;2022-12-07T03:45:58;28.77;;;21.63;;
19253;SDS011;9761;50.926;5.330;2022-12-07T03:48:35;26.93;;;21.13;;
19253;SDS011;9761;50.926;5.330;2022-12-07T03:51:09;34.97;;;22.57;;
19253;SDS011;9761;50.926;5.330;2022-12-07T03:53:46;29.80;;;22.30;;
19253;SDS011;9761;50.926;5.330;2022-12-07T03:56:17;34.43;;;22.47;;
19253;SDS011;9761;50.926;5.330;2022-12-07T03:58:45;29.80;;;21.70;;
19253;SDS011;9761;50.926;5.330;2022-12-07T04:01:13;34.37;;;21.80;;
19253;SDS011;9761;50.926;5.330;2022-12-07T04:03:42;27.60;;;20.93;;
19253;SDS011;9761;50.926;5.330;2022-12-07T04:06:09;31.23;;;22.20;;
19253;SDS011;9761;50.926;5.330;2022-12-07T04:08:36;31.20;;;23.07;;
19253;SDS011;9761;50.926;5.330;2022-12-07T04:11:03;27.53;;;20.87;;
19253;SDS011;9761;50.926;5.330;2022-12-07T04:13:30;31.10;;;21.87;;
19253;SDS011;9761;50.926;5.330;2022-12-07T04:16:18;30.67;;;20.93;;
19253;SDS011;9761;50.926;5.330;2022-12-07T04:18:46;29.17;;;21.73;;
19253;SDS011;9761;50.926;5.330;2022-12-07T04:21:13;28.80;;;22.77;;
19253;SDS011;9761;50.926;5.330;2022-12-07T04:23:40;32.07;;;22.30;;
19253;SDS011;9761;50.926;5.330;2022-12-07T04:26:07;35.47;;;21.93;;
19253;SDS011;9761;50.926;5.330;2022-12-07T04:28:34;31.97;;;22.23;;
19253;SDS011;9761;50.926;5.330;2022-12-07T04:31:01;30.93;;;22.07;;
19253;SDS011;9761;50.926;5.330;2022-12-07T04:33:28;29.70;;;21.93;;
19253;SDS011;9761;50.926;5.330;2022-12-07T04:35:57;33.17;;;22.93;;
19253;SDS011;9761;50.926;5.330;2022-12-07T04:38:24;30.00;;;22.00;;
19253;SDS011;9761;50.926;5.330;2022-12-07T04:40:50;31.10;;;23.00;;
19253;SDS011;9761;50.926;5.330;2022-12-07T04:43:17;35.53;;;24.07;;
19253;SDS011;9761;50.926;5.330;2022-12-07T04:45:46;35.30;;;23.80;;
19253;SDS011;9761;50.926;5.330;2022-12-07T04:48:13;33.33;;;23.33;;
19253;SDS011;9761;50.926;5.330;2022-12-07T04:50:41;38.00;;;25.03;;
19253;SDS011;9761;50.926;5.330;2022-12-07T04:53:09;35.83;;;24.30;;
19253;SDS011;9761;50.926;5.330;2022-12-07T04:55:36;34.27;;;23.63;;
19253;SDS011;9761;50.926;5.330;2022-12-07T04:58:03;37.20;;;24.70;;
19253;SDS011;9761;50.926;5.330;2022-12-07T05:00:30;41.50;;;27.30;;
19253;SDS011;9761;50.926;5.330;2022-12-07T05:02:58;38.23;;;26.57;;
19253;SDS011;9761;50.926;5.330;2022-12-07T05:05:25;38.90;;;26.90;;
19253;SDS011;9761;50.926;5.330;2022-12-07T05:07:52;43.00;;;25.73;;
19253;SDS011;9761;50.926;5.330;2022-12-07T05:10:21;38.17;;;26.43;;
19253;SDS011;9761;50.926;5.330;2022-12-07T05:12:48;40.17;;;25.67;;
19253;SDS011;9761;50.926;5.330;2022-12-07T05:15:15;35.73;;;25.10;;
19253;SDS011;9761;50.926;5.330;2022-12-07T05:17:43;40.53;;;26.77;;
19253;SDS011;9761;50.926;5.330;2022-12-07T05:20:10;39.97;;;25.77;;
19253;SDS011;9761;50.926;5.330;2022-12-07T05:22:38;35.63;;;25.00;;
19253;SDS011;9761;50.926;5.330;2022-12-07T05:25:05;36.73;;;24.67;;
19253;SDS011;9761;50.926;5.330;2022-12-07T05:27:34;34.50;;;25.03;;
19253;SDS011;9761;50.926;5.330;2022-12-07T05:30:01;35.40;;;24.73;;
19253;SDS011;9761;50.926;5.330;2022-12-07T05:32:28;33.10;;;25.03;;
19253;SDS011;9761;50.926;5.330;2022-12-07T05:34:55;37.20;;;25.47;;
19253;SDS011;9761;50.926;5.330;2022-12-07T05:37:22;39.00;;;25.67;;
19253;SDS011;9761;50.926;5.330;2022-12-07T05:39:49;39.03;;;24.83;;
19253;SDS011;9761;50.926;5.330;2022-12-07T05:42:16;37.57;;;25.83;;
19253;SDS011;9761;50.926;5.330;2022-12-07T05:44:45;35.67;;;25.90;;
19253;SDS011;9761;50.926;5.330;2022-12-07T05:47:13;36.20;;;25.90;;
19253;SDS011;9761;50.926;5.330;2022-12-07T05:49:41;37.77;;;25.77;;
19253;SDS011;9761;50.926;5.330;2022-12-07T05:52:08;36.83;;;26.87;;
19253;SDS011;9761;50.926;5.330;2022-12-07T05:54:35;37.77;;;26.07;;
19253;SDS011;9761;50.926;5.330;2022-12-07T05:57:02;35.70;;;25.83;;
19253;SDS011;9761;50.926;5.330;2022-12-07T05:59:35;36.00;;;25.67;;
19253;SDS011;9761;50.926;5.330;2022-12-07T06:02:05;37.30;;;26.30;;
19253;SDS011;9761;50.926;5.330;2022-12-07T06:04:33;38.37;;;25.70;;
19253;SDS011;9761;50.926;5.330;2022-12-07T06:07:02;39.93;;;27.60;;
19253;SDS011;9761;50.926;5.330;2022-12-07T06:09:30;38.43;;;27.10;;
19253;SDS011;9761;50.926;5.330;2022-12-07T06:11:57;38.27;;;27.87;;
19253;SDS011;9761;50.926;5.330;2022-12-07T06:14:42;40.50;;;26.43;;
19253;SDS011;9761;50.926;5.330;2022-12-07T06:17:12;38.37;;;26.33;;
19253;SDS011;9761;50.926;5.330;2022-12-07T06:19:39;37.47;;;26.03;;
19253;SDS011;9761;50.926;5.330;2022-12-07T06:22:07;38.40;;;24.60;;
19253;SDS011;9761;50.926;5.330;2022-12-07T06:24:34;39.70;;;26.33;;
19253;SDS011;9761;50.926;5.330;2022-12-07T06:27:02;41.43;;;27.77;;
19253;SDS011;9761;50.926;5.330;2022-12-07T06:29:29;36.53;;;25.93;;
19253;SDS011;9761;50.926;5.330;2022-12-07T06:31:56;38.20;;;25.80;;
19253;SDS011;9761;50.926;5.330;2022-12-07T06:34:25;39.23;;;27.17;;
19253;SDS011;9761;50.926;5.330;2022-12-07T06:36:53;47.00;;;27.53;;
19253;SDS011;9761;50.926;5.330;2022-12-07T06:39:21;37.70;;;26.57;;
19253;SDS011;9761;50.926;5.330;2022-12-07T06:41:50;37.67;;;27.40;;
19253;SDS011;9761;50.926;5.330;2022-12-07T06:44:19;36.10;;;26.27;;
19253;SDS011;9761;50.926;5.330;2022-12-07T06:46:47;39.07;;;29.37;;
19253;SDS011;9761;50.926;5.330;2022-12-07T06:49:16;43.03;;;28.03;;
19253;SDS011;9761;50.926;5.330;2022-12-07T06:51:45;45.73;;;28.17;;
19253;SDS011;9761;50.926;5.330;2022-12-07T06:54:13;37.63;;;26.70;;
19253;SDS011;9761;50.926;5.330;2022-12-07T06:56:41;38.23;;;28.07;;
19253;SDS011;9761;50.926;5.330;2022-12-07T06:59:08;41.27;;;27.83;;
19253;SDS011;9761;50.926;5.330;2022-12-07T07:01:36;38.03;;;27.03;;
19253;SDS011;9761;50.926;5.330;2022-12-07T07:04:03;42.67;;;27.73;;
19253;SDS011;9761;50.926;5.330;2022-12-07T07:06:30;39.23;;;28.33;;
19253;SDS011;9761;50.926;5.330;2022-12-07T07:08:58;43.53;;;27.60;;
19253;SDS011;9761;50.926;5.330;2022-12-07T07:11:25;43.97;;;29.10;;
19253;SDS011;9761;50.926;5.330;2022-12-07T07:13:52;39.33;;;26.03;;
19253;SDS011;9761;50.926;5.330;2022-12-07T07:16:22;37.93;;;27.60;;
19253;SDS011;9761;50.926;5.330;2022-12-07T07:18:49;41.67;;;27.63;;
19253;SDS011;9761;50.926;5.330;2022-12-07T07:21:16;47.97;;;30.80;;
19253;SDS011;9761;50.926;5.330;2022-12-07T07:23:44;46.90;;;29.90;;
19253;SDS011;9761;50.926;5.330;2022-12-07T07:26:12;44.80;;;31.80;;
19253;SDS011;9761;50.926;5.330;2022-12-07T07:28:40;43.33;;;28.90;;
19253;SDS011;9761;50.926;5.330;2022-12-07T07:31:07;49.63;;;30.43;;
19253;SDS011;9761;50.926;5.330;2022-12-07T07:33:34;44.47;;;28.83;;
19253;SDS011;9761;50.926;5.330;2022-12-07T07:36:01;52.53;;;31.23;;
19253;SDS011;9761;50.926;5.330;2022-12-07T07:38:28;47.73;;;33.13;;
19253;SDS011;9761;50.926;5.330;2022-12-07T07:40:55;46.40;;;32.50;;
19253;SDS011;9761;50.926;5.330;2022-12-07T07:43:23;54.03;;;35.17;;
19253;SDS011;9761;50.926;5.330;2022-12-07T07:45:51;58.33;;;36.83;;
19253;SDS011;9761;50.926;5.330;2022-12-07T07:48:33;44.67;;;31.30;;
19253;SDS011;9761;50.926;5.330;2022-12-07T07:51:28;44.00;;;27.30;;
19253;SDS011;9761;50.926;5.330;2022-12-07T07:53:55;40.20;;;27.10;;
19253;SDS011;9761;50.926;5.330;2022-12-07T07:56:22;42.47;;;28.87;;
19253;SDS011;9761;50.926;5.330;2022-12-07T07:58:52;45.60;;;27.07;;
19253;SDS011;9761;50.926;5.330;2022-12-07T08:01:21;43.23;;;28.67;;
19253;SDS011;9761;50.926;5.330;2022-12-07T08:03:48;45.00;;;27.27;;
19253;SDS011;9761;50.926;5.330;2022-12-07T08:06:15;46.47;;;27.63;;
19253;SDS011;9761;50.926;5.330;2022-12-07T08:08:42;39.70;;;26.57;;
19253;SDS011;9761;50.926;5.330;2022-12-07T08:11:09;42.20;;;27.47;;
19253;SDS011;9761;50.926;5.330;2022-12-07T08:13:36;39.17;;;24.83;;
19253;SDS011;9761;50.926;5.330;2022-12-07T08:16:05;47.10;;;27.57;;
19253;SDS011;9761;50.926;5.330;2022-12-07T08:18:34;42.57;;;25.33;;
19253;SDS011;9761;50.926;5.330;2022-12-07T08:21:02;43.00;;;26.97;;
19253;SDS011;9761;50.926;5.330;2022-12-07T08:23:30;38.10;;;25.73;;
19253;SDS011;9761;50.926;5.330;2022-12-07T08:26:02;43.00;;;26.67;;
19253;SDS011;9761;50.926;5.330;2022-12-07T08:31:20;39.17;;;25.50;;
19253;SDS011;9761;50.926;5.330;2022-12-07T08:33:47;46.70;;;28.43;;
19253;SDS011;9761;50.926;5.330;2022-12-07T08:36:15;43.43;;;27.00;;
19253;SDS011;9761;50.926;5.330;2022-12-07T08:38:43;53.73;;;28.07;;
19253;SDS011;9761;50.926;5.330;2022-12-07T08:41:10;44.43;;;27.00;;
19253;SDS011;9761;50.926;5.330;2022-12-07T08:43:37;42.37;;;28.17;;
19253;SDS011;9761;50.926;5.330;2022-12-07T08:46:06;46.27;;;29.13;;
19253;SDS011;9761;50.926;5.330;2022-12-07T08:48:38;45.80;;;29.73;;
19253;SDS011;9761;50.926;5.330;2022-12-07T08:51:09;44.60;;;28.30;;
19253;SDS011;9761;50.926;5.330;2022-12-07T08:53:37;47.70;;;28.53;;
19253;SDS011;9761;50.926;5.330;2022-12-07T08:56:05;47.00;;;28.83;;
19253;SDS011;9761;50.926;5.330;2022-12-07T08:58:34;42.67;;;27.67;;
19253;SDS011;9761;50.926;5.330;2022-12-07T09:01:02;44.23;;;27.50;;
19253;SDS011;9761;50.926;5.330;2022-12-07T09:03:30;42.03;;;26.30;;
19253;SDS011;9761;50.926;5.330;2022-12-07T09:06:00;40.00;;;25.77;;
19253;SDS011;9761;50.926;5.330;2022-12-07T09:08:28;43.93;;;27.17;;
19253;SDS011;9761;50.926;5.330;2022-12-07T09:11:01;37.03;;;24.93;;
19253;SDS011;9761;50.926;5.330;2022-12-07T09:13:28;35.30;;;25.10;;
19253;SDS011;9761;50.926;5.330;2022-12-07T09:15:55;36.50;;;24.73;;
19253;SDS011;9761;50.926;5.330;2022-12-07T09:18:23;33.80;;;23.97;;
19253;SDS011;9761;50.926;5.330;2022-12-07T09:24:14;35.43;;;23.10;;
19253;SDS011;9761;50.926;5.330;2022-12-07T09:26:41;34.60;;;23.03;;
19253;SDS011;9761;50.926;5.330;2022-12-07T09:29:09;29.07;;;21.13;;
19253;SDS011;9761;50.926;5.330;2022-12-07T09:31:36;30.70;;;19.43;;
19253;SDS011;9761;50.926;5.330;2022-12-07T09:34:04;29.57;;;19.13;;
19253;SDS011;9761;50.926;5.330;2022-12-07T09:36:32;29.37;;;19.10;;
19253;SDS011;9761;50.926;5.330;2022-12-07T09:39:00;24.37;;;17.63;;
19253;SDS011;9761;50.926;5.330;2022-12-07T09:41:29;28.77;;;16.57;;
19253;SDS011;9761;50.926;5.330;2022-12-07T09:43:58;22.47;;;15.47;;
19253;SDS011;9761;50.926;5.330;2022-12-07T09:46:30;20.57;;;13.80;;
19253;SDS011;9761;50.926;5.330;2022-12-07T09:49:02;20.47;;;13.87;;
19253;SDS011;9761;50.926;5.330;2022-12-07T09:51:30;22.37;;;14.73;;
19253;SDS011;9761;50.926;5.330;2022-12-07T09:53:58;19.13;;;12.40;;
19253;SDS011;9761;50.926;5.330;2022-12-07T09:56:28;18.57;;;13.27;;
19253;SDS011;9761;50.926;5.330;2022-12-07T09:58:58;19.20;;;12.47;;
19253;SDS011;9761;50.926;5.330;2022-12-07T10:01:27;15.37;;;11.37;;
19253;SDS011;9761;50.926;5.330;2022-12-07T10:03:59;15.70;;;11.70;;
19253;SDS011;9761;50.926;5.330;2022-12-07T10:06:35;15.47;;;10.97;;
19253;SDS011;9761;50.926;5.330;2022-12-07T10:09:08;15.23;;;11.07;;
19253;SDS011;9761;50.926;5.330;2022-12-07T10:14:25;15.97;;;11.50;;
19253;SDS011;9761;50.926;5.330;2022-12-07T10:16:55;17.50;;;10.97;;
19253;SDS011;9761;50.926;5.330;2022-12-07T10:22:24;15.63;;;9.53;;
19253;SDS011;9761;50.926;5.330;2022-12-07T10:24:51;14.87;;;9.20;;
19253;SDS011;9761;50.926;5.330;2022-12-07T10:27:21;11.70;;;8.77;;
19253;SDS011;9761;50.926;5.330;2022-12-07T10:29:56;11.83;;;8.83;;
19253;SDS011;9761;50.926;5.330;2022-12-07T10:32:28;12.77;;;8.97;;
19253;SDS011;9761;50.926;5.330;2022-12-07T10:35:21;15.10;;;9.83;;
19253;SDS011;9761;50.926;5.330;2022-12-07T10:37:51;14.80;;;8.70;;
19253;SDS011;9761;50.926;5.330;2022-12-07T10:40:25;14.97;;;9.57;;
19253;SDS011;9761;50.926;5.330;2022-12-07T10:43:02;11.67;;;8.70;;
19253;SDS011;9761;50.926;5.330;2022-12-07T10:45:30;13.47;;;9.20;;
19253;SDS011;9761;50.926;5.330;2022-12-07T10:47:59;14.60;;;8.20;;
19253;SDS011;9761;50.926;5.330;2022-12-07T10:50:42;9.63;;;7.50;;
19253;SDS011;9761;50.926;5.330;2022-12-07T10:53:25;13.77;;;7.47;;
19253;SDS011;9761;50.926;5.330;2022-12-07T10:56:18;14.60;;;7.63;;
19253;SDS011;9761;50.926;5.330;2022-12-07T10:59:01;9.13;;;6.87;;
19253;SDS011;9761;50.926;5.330;2022-12-07T11:01:43;10.47;;;7.20;;
19253;SDS011;9761;50.926;5.330;2022-12-07T11:04:21;12.17;;;6.63;;
19253;SDS011;9761;50.926;5.330;2022-12-07T11:06:59;12.93;;;7.43;;
19253;SDS011;9761;50.926;5.330;2022-12-07T11:12:29;11.30;;;7.33;;
19253;SDS011;9761;50.926;5.330;2022-12-07T11:15:12;10.20;;;6.83;;
19253;SDS011;9761;50.926;5.330;2022-12-07T11:17:45;12.20;;;7.17;;
19253;SDS011;9761;50.926;5.330;2022-12-07T11:20:23;14.07;;;7.27;;
19253;SDS011;9761;50.926;5.330;2022-12-07T11:23:06;10.43;;;7.10;;
19253;SDS011;9761;50.926;5.330;2022-12-07T11:25:44;10.30;;;6.90;;
19253;SDS011;9761;50.926;5.330;2022-12-07T11:34:13;14.97;;;7.20;;
19253;SDS011;9761;50.926;5.330;2022-12-07T11:36:51;8.40;;;6.57;;
19253;SDS011;9761;50.926;5.330;2022-12-07T11:39:22;10.37;;;5.90;;
19253;SDS011;9761;50.926;5.330;2022-12-07T11:41:56;9.23;;;5.73;;
19253;SDS011;9761;50.926;5.330;2022-12-07T11:44:46;10.43;;;6.30;;
19253;SDS011;9761;50.926;5.330;2022-12-07T11:47:20;8.67;;;5.90;;
19253;SDS011;9761;50.926;5.330;2022-12-07T11:49:53;9.30;;;5.70;;
19253;SDS011;9761;50.926;5.330;2022-12-07T11:52:25;7.63;;;3.70;;
19253;SDS011;9761;50.926;5.330;2022-12-07T11:54:58;9.77;;;3.87;;
19253;SDS011;9761;50.926;5.330;2022-12-07T11:57:30;5.60;;;3.37;;
19253;SDS011;9761;50.926;5.330;2022-12-07T12:00:03;5.43;;;3.77;;
19253;SDS011;9761;50.926;5.330;2022-12-07T12:02:36;14.87;;;4.13;;
19253;SDS011;9761;50.926;5.330;2022-12-07T12:05:15;6.10;;;3.60;;
19253;SDS011;9761;50.926;5.330;2022-12-07T12:07:44;5.93;;;3.60;;
19253;SDS011;9761;50.926;5.330;2022-12-07T12:10:16;7.27;;;3.73;;
19253;SDS011;9761;50.926;5.330;2022-12-07T12:12:50;8.17;;;3.93;;
19253;SDS011;9761;50.926;5.330;2022-12-07T12:15:37;6.27;;;3.60;;
19253;SDS011;9761;50.926;5.330;2022-12-07T12:24:09;8.23;;;4.13;;
19253;SDS011;9761;50.926;5.330;2022-12-07T12:26:41;5.67;;;3.57;;
19253;SDS011;9761;50.926;5.330;2022-12-07T12:29:19;10.67;;;3.60;;
19253;SDS011;9761;50.926;5.330;2022-12-07T12:32:04;6.90;;;3.23;;
19253;SDS011;9761;50.926;5.330;2022-12-07T12:34:38;8.03;;;3.80;;
19253;SDS011;9761;50.926;5.330;2022-12-07T12:43:27;9.67;;;3.87;;
19253;SDS011;9761;50.926;5.330;2022-12-07T12:46:35;5.50;;;3.17;;
19253;SDS011;9761;50.926;5.330;2022-12-07T12:49:33;5.63;;;3.03;;
19253;SDS011;9761;50.926;5.330;2022-12-07T12:55:18;6.10;;;2.67;;
19253;SDS011;9761;50.926;5.330;2022-12-07T12:57:47;7.73;;;2.37;;
19253;SDS011;9761;50.926;5.330;2022-12-07T13:03:55;5.20;;;2.20;;
19253;SDS011;9761;50.926;5.330;2022-12-07T13:06:35;6.80;;;2.53;;
19253;SDS011;9761;50.926;5.330;2022-12-07T13:11:59;7.00;;;2.90;;
19253;SDS011;9761;50.926;5.330;2022-12-07T13:14:43;5.13;;;2.70;;
19253;SDS011;9761;50.926;5.330;2022-12-07T13:20:45;4.23;;;1.97;;
19253;SDS011;9761;50.926;5.330;2022-12-07T13:23:19;7.77;;;2.70;;
19253;SDS011;9761;50.926;5.330;2022-12-07T13:25:54;5.20;;;2.70;;
19253;SDS011;9761;50.926;5.330;2022-12-07T13:28:31;4.20;;;2.20;;
19253;SDS011;9761;50.926;5.330;2022-12-07T13:31:09;3.67;;;2.53;;
19253;SDS011;9761;50.926;5.330;2022-12-07T13:33:46;5.63;;;2.83;;
19253;SDS011;9761;50.926;5.330;2022-12-07T13:36:17;7.93;;;2.27;;
19253;SDS011;9761;50.926;5.330;2022-12-07T13:38:51;8.50;;;2.70;;
19253;SDS011;9761;50.926;5.330;2022-12-07T13:41:23;6.90;;;2.73;;
19253;SDS011;9761;50.926;5.330;2022-12-07T13:43:54;3.97;;;2.00;;
19253;SDS011;9761;50.926;5.330;2022-12-07T13:46:31;2.83;;;1.73;;
19253;SDS011;9761;50.926;5.330;2022-12-07T13:49:14;5.83;;;1.67;;
19253;SDS011;9761;50.926;5.330;2022-12-07T13:51:50;6.90;;;1.90;;
19253;SDS011;9761;50.926;5.330;2022-12-07T13:54:18;4.70;;;1.70;;
19253;SDS011;9761;50.926;5.330;2022-12-07T13:56:47;2.97;;;1.57;;
19253;SDS011;9761;50.926;5.330;2022-12-07T13:59:18;2.40;;;1.40;;
19253;SDS011;9761;50.926;5.330;2022-12-07T14:01:47;5.50;;;1.50;;
19253;SDS011;9761;50.926;5.330;2022-12-07T14:04:16;3.03;;;1.70;;
19253;SDS011;9761;50.926;5.330;2022-12-07T14:06:55;3.87;;;1.83;;
19253;SDS011;9761;50.926;5.330;2022-12-07T14:09:22;3.00;;;2.10;;
19253;SDS011;9761;50.926;5.330;2022-12-07T14:11:51;5.40;;;2.20;;
19253;SDS011;9761;50.926;5.330;2022-12-07T14:14:22;7.93;;;2.33;;
19253;SDS011;9761;50.926;5.330;2022-12-07T14:16:55;3.07;;;2.30;;
19253;SDS011;9761;50.926;5.330;2022-12-07T14:19:43;5.43;;;2.67;;
19253;SDS011;9761;50.926;5.330;2022-12-07T14:22:22;4.67;;;2.83;;
19253;SDS011;9761;50.926;5.330;2022-12-07T14:25:09;4.57;;;3.17;;
19253;SDS011;9761;50.926;5.330;2022-12-07T14:27:47;8.53;;;3.90;;
19253;SDS011;9761;50.926;5.330;2022-12-07T14:30:17;5.43;;;3.33;;
19253;SDS011;9761;50.926;5.330;2022-12-07T14:32:46;8.60;;;4.20;;
19253;SDS011;9761;50.926;5.330;2022-12-07T14:35:17;7.60;;;3.93;;
19253;SDS011;9761;50.926;5.330;2022-12-07T14:37:45;8.97;;;4.13;;
19253;SDS011;9761;50.926;5.330;2022-12-07T14:40:14;5.60;;;4.37;;
19253;SDS011;9761;50.926;5.330;2022-12-07T14:42:45;6.00;;;3.87;;
19253;SDS011;9761;50.926;5.330;2022-12-07T14:45:16;11.20;;;4.53;;
19253;SDS011;9761;50.926;5.330;2022-12-07T14:47:46;6.47;;;4.40;;
19253;SDS011;9761;50.926;5.330;2022-12-07T14:50:14;7.30;;;4.37;;
19253;SDS011;9761;50.926;5.330;2022-12-07T14:52:43;6.43;;;4.47;;
19253;SDS011;9761;50.926;5.330;2022-12-07T14:55:14;7.70;;;4.20;;
19253;SDS011;9761;50.926;5.330;2022-12-07T14:57:46;7.83;;;3.90;;
19253;SDS011;9761;50.926;5.330;2022-12-07T15:00:13;8.23;;;3.83;;
19253;SDS011;9761;50.926;5.330;2022-12-07T15:02:46;10.27;;;3.83;;
19253;SDS011;9761;50.926;5.330;2022-12-07T15:05:15;5.83;;;3.83;;
19253;SDS011;9761;50.926;5.330;2022-12-07T15:07:43;7.23;;;4.37;;
19253;SDS011;9761;50.926;5.330;2022-12-07T15:10:13;5.77;;;3.77;;
19253;SDS011;9761;50.926;5.330;2022-12-07T15:12:43;7.13;;;4.10;;
19253;SDS011;9761;50.926;5.330;2022-12-07T15:15:10;9.23;;;4.80;;
19253;SDS011;9761;50.926;5.330;2022-12-07T15:17:37;7.80;;;4.17;;
19253;SDS011;9761;50.926;5.330;2022-12-07T15:20:07;7.27;;;4.20;;
19253;SDS011;9761;50.926;5.330;2022-12-07T15:22:37;7.30;;;4.67;;
19253;SDS011;9761;50.926;5.330;2022-12-07T15:25:04;9.07;;;4.60;;
19253;SDS011;9761;50.926;5.330;2022-12-07T15:27:32;12.00;;;4.77;;
19253;SDS011;9761;50.926;5.330;2022-12-07T15:29:59;7.43;;;4.40;;
19253;SDS011;9761;50.926;5.330;2022-12-07T15:32:26;7.23;;;4.07;;
19253;SDS011;9761;50.926;5.330;2022-12-07T15:34:53;7.07;;;4.20;;
19253;SDS011;9761;50.926;5.330;2022-12-07T15:37:21;7.97;;;4.17;;
19253;SDS011;9761;50.926;5.330;2022-12-07T15:39:49;6.20;;;4.13;;
19253;SDS011;9761;50.926;5.330;2022-12-07T15:42:16;8.37;;;5.13;;
19253;SDS011;9761;50.926;5.330;2022-12-07T15:44:43;11.17;;;5.33;;
19253;SDS011;9761;50.926;5.330;2022-12-07T15:47:27;7.83;;;4.90;;
19253;SDS011;9761;50.926;5.330;2022-12-07T15:49:55;7.80;;;4.70;;
19253;SDS011;9761;50.926;5.330;2022-12-07T15:52:24;7.23;;;4.90;;
19253;SDS011;9761;50.926;5.330;2022-12-07T15:54:51;8.73;;;5.07;;
19253;SDS011;9761;50.926;5.330;2022-12-07T15:57:18;10.90;;;4.73;;
19253;SDS011;9761;50.926;5.330;2022-12-07T15:59:44;7.43;;;4.17;;
19253;SDS011;9761;50.926;5.330;2022-12-07T16:02:12;5.37;;;4.10;;
19253;SDS011;9761;50.926;5.330;2022-12-07T16:04:40;7.60;;;3.93;;